sensor_id;sensor_type;location;lat;lon;timestamp;pressure;altitude;pressure_sealevel;temperature;humidity
77216;BME280;66210;53.282;9.864;2023-03-01T00:01:04;102644.97;;;-3.25;76.03
77216;BME280;66210;53.282;9.864;2023-03-01T00:03:32;102646.16;;;-3.29;76.38
77216;BME280;66210;53.282;9.864;2023-03-01T00:05:59;102648.94;;;-3.33;76.87
77216;BME280;66210;53.282;9.864;2023-03-01T00:08:26;102636.31;;;-3.35;76.58
77216;BME280;66210;53.282;9.864;2023-03-01T00:11:04;102650.53;;;-3.33;77.10
77216;BME280;66210;53.282;9.864;2023-03-01T00:13:32;102648.34;;;-3.38;76.73
77216;BME280;66210;53.282;9.864;2023-03-01T00:16:02;102654.09;;;-3.44;77.37
77216;BME280;66210;53.282;9.864;2023-03-01T00:18:29;102646.03;;;-3.49;77.09
77216;BME280;66210;53.282;9.864;2023-03-01T00:20:55;102650.09;;;-3.49;77.44
77216;BME280;66210;53.282;9.864;2023-03-01T00:23:22;102643.31;;;-3.50;76.36
77216;BME280;66210;53.282;9.864;2023-03-01T00:25:50;102649.41;;;-3.48;76.26
77216;BME280;66210;53.282;9.864;2023-03-01T00:28:17;102641.94;;;-3.48;76.59
77216;BME280;66210;53.282;9.864;2023-03-01T00:30:43;102641.94;;;-3.48;76.72
77216;BME280;66210;53.282;9.864;2023-03-01T00:33:10;102650.28;;;-3.48;76.82
77216;BME280;66210;53.282;9.864;2023-03-01T00:35:37;102639.47;;;-3.48;77.44
77216;BME280;66210;53.282;9.864;2023-03-01T00:38:04;102644.91;;;-3.51;77.15
77216;BME280;66210;53.282;9.864;2023-03-01T00:40:33;102646.50;;;-3.51;77.48
77216;BME280;66210;53.282;9.864;2023-03-01T00:43:00;102648.78;;;-3.53;77.58
77216;BME280;66210;53.282;9.864;2023-03-01T00:45:27;102643.59;;;-3.55;77.61
77216;BME280;66210;53.282;9.864;2023-03-01T00:47:54;102641.34;;;-3.53;76.94
77216;BME280;66210;53.282;9.864;2023-03-01T00:50:20;102641.34;;;-3.53;76.57
77216;BME280;66210;53.282;9.864;2023-03-01T00:52:46;102639.06;;;-3.51;76.93
77216;BME280;66210;53.282;9.864;2023-03-01T00:55:13;102643.22;;;-3.58;77.25
77216;BME280;66210;53.282;9.864;2023-03-01T00:57:39;102633.34;;;-3.63;77.61
77216;BME280;66210;53.282;9.864;2023-03-01T01:00:07;102634.75;;;-3.65;77.79
77216;BME280;66210;53.282;9.864;2023-03-01T01:02:34;102644.25;;;-3.68;77.49
77216;BME280;66210;53.282;9.864;2023-03-01T01:05:01;102639.56;;;-3.72;77.76
77216;BME280;66210;53.282;9.864;2023-03-01T01:07:27;102627.75;;;-3.81;77.30
77216;BME280;66210;53.282;9.864;2023-03-01T01:09:54;102635.06;;;-3.88;77.62
77216;BME280;66210;53.282;9.864;2023-03-01T01:12:20;102632.16;;;-3.91;78.30
77216;BME280;66210;53.282;9.864;2023-03-01T01:14:47;102643.47;;;-3.93;77.20
77216;BME280;66210;53.282;9.864;2023-03-01T01:17:14;102644.19;;;-3.94;77.77
77216;BME280;66210;53.282;9.864;2023-03-01T01:19:40;102645.78;;;-3.94;77.53
77216;BME280;66210;53.282;9.864;2023-03-01T01:22:06;102630.16;;;-3.93;77.66
77216;BME280;66210;53.282;9.864;2023-03-01T01:24:33;102623.13;;;-3.90;77.84
77216;BME280;66210;53.282;9.864;2023-03-01T01:26:59;102617.19;;;-3.85;77.33
77216;BME280;66210;53.282;9.864;2023-03-01T01:29:26;102611.13;;;-3.87;78.07
77216;BME280;66210;53.282;9.864;2023-03-01T01:31:53;102617.47;;;-3.89;78.41
77216;BME280;66210;53.282;9.864;2023-03-01T01:34:21;102614.56;;;-3.92;77.83
77216;BME280;66210;53.282;9.864;2023-03-01T01:36:49;102617.34;;;-3.97;78.26
77216;BME280;66210;53.282;9.864;2023-03-01T01:39:16;102607.69;;;-4.01;78.34
77216;BME280;66210;53.282;9.864;2023-03-01T01:41:43;102615.63;;;-4.03;78.19
77216;BME280;66210;53.282;9.864;2023-03-01T01:44:24;102610.25;;;-4.06;78.12
77216;BME280;66210;53.282;9.864;2023-03-01T01:47:01;102606.88;;;-4.07;78.41
77216;BME280;66210;53.282;9.864;2023-03-01T01:49:37;102601.91;;;-4.07;77.95
77216;BME280;66210;53.282;9.864;2023-03-01T01:52:10;102609.97;;;-4.02;78.01
77216;BME280;66210;53.282;9.864;2023-03-01T01:54:44;102606.31;;;-3.99;78.64
77216;BME280;66210;53.282;9.864;2023-03-01T01:57:16;102609.47;;;-4.00;78.03
77216;BME280;66210;53.282;9.864;2023-03-01T01:59:49;102593.69;;;-4.00;77.96
77216;BME280;66210;53.282;9.864;2023-03-01T02:02:17;102599.53;;;-4.00;78.19
77216;BME280;66210;53.282;9.864;2023-03-01T02:04:47;102593.91;;;-3.99;78.61
77216;BME280;66210;53.282;9.864;2023-03-01T02:07:17;102582.16;;;-4.00;78.14
77216;BME280;66210;53.282;9.864;2023-03-01T02:09:47;102581.28;;;-4.00;78.55
77216;BME280;66210;53.282;9.864;2023-03-01T02:12:16;102581.50;;;-3.99;78.36
77216;BME280;66210;53.282;9.864;2023-03-01T02:14:43;102583.69;;;-3.94;78.09
77216;BME280;66210;53.282;9.864;2023-03-01T02:17:12;102580.50;;;-3.93;78.02
77216;BME280;66210;53.282;9.864;2023-03-01T02:22:20;102579.69;;;-4.00;78.38
77216;BME280;66210;53.282;9.864;2023-03-01T02:27:40;102583.63;;;-4.07;78.47
77216;BME280;66210;53.282;9.864;2023-03-01T02:30:13;102578.47;;;-4.09;78.62
77216;BME280;66210;53.282;9.864;2023-03-01T02:32:51;102567.66;;;-4.09;78.82
77216;BME280;66210;53.282;9.864;2023-03-01T02:35:19;102570.13;;;-4.09;78.56
77216;BME280;66210;53.282;9.864;2023-03-01T02:37:46;102566.31;;;-4.13;79.05
77216;BME280;66210;53.282;9.864;2023-03-01T02:40:16;102558.97;;;-4.19;79.47
77216;BME280;66210;53.282;9.864;2023-03-01T02:42:54;102560.84;;;-4.23;79.35
77216;BME280;66210;53.282;9.864;2023-03-01T02:45:22;102563.31;;;-4.23;79.47
77216;BME280;66210;53.282;9.864;2023-03-01T02:47:49;102570.81;;;-4.29;79.46
77216;BME280;66210;53.282;9.864;2023-03-01T02:50:35;102571.53;;;-4.30;79.01
77216;BME280;66210;53.282;9.864;2023-03-01T02:53:08;102577.38;;;-4.29;78.99
77216;BME280;66210;53.282;9.864;2023-03-01T02:55:39;102568.34;;;-4.29;79.21
77216;BME280;66210;53.282;9.864;2023-03-01T02:58:06;102569.22;;;-4.28;78.63
77216;BME280;66210;53.282;9.864;2023-03-01T03:03:46;102570.81;;;-4.29;78.70
77216;BME280;66210;53.282;9.864;2023-03-01T03:06:15;102566.97;;;-4.27;78.35
77216;BME280;66210;53.282;9.864;2023-03-01T03:08:42;102562.00;;;-4.27;78.63
77216;BME280;66210;53.282;9.864;2023-03-01T03:11:08;102558.38;;;-4.23;78.67
77216;BME280;66210;53.282;9.864;2023-03-01T03:13:35;102554.50;;;-4.21;78.60
77216;BME280;66210;53.282;9.864;2023-03-01T03:16:02;102552.41;;;-4.18;78.17
77216;BME280;66210;53.282;9.864;2023-03-01T03:18:28;102554.41;;;-4.15;78.62
77216;BME280;66210;53.282;9.864;2023-03-01T03:20:55;102542.88;;;-4.15;77.94
77216;BME280;66210;53.282;9.864;2023-03-01T03:23:22;102547.56;;;-4.11;78.33
77216;BME280;66210;53.282;9.864;2023-03-01T03:25:49;102549.16;;;-4.11;78.58
77216;BME280;66210;53.282;9.864;2023-03-01T03:28:17;102546.97;;;-4.15;78.76
77216;BME280;66210;53.282;9.864;2023-03-01T03:30:46;102546.84;;;-4.23;78.89
77216;BME280;66210;53.282;9.864;2023-03-01T03:33:13;102537.28;;;-4.32;78.51
77216;BME280;66210;53.282;9.864;2023-03-01T03:40:03;102548.66;;;-4.40;78.99
77216;BME280;66210;53.282;9.864;2023-03-01T03:42:29;102549.63;;;-4.45;79.28
77216;BME280;66210;53.282;9.864;2023-03-01T03:44:56;102547.81;;;-4.46;79.51
77216;BME280;66210;53.282;9.864;2023-03-01T03:47:22;102545.16;;;-4.48;79.45
77216;BME280;66210;53.282;9.864;2023-03-01T03:49:49;102545.81;;;-4.49;79.37
77216;BME280;66210;53.282;9.864;2023-03-01T03:52:15;102533.84;;;-4.46;79.55
77216;BME280;66210;53.282;9.864;2023-03-01T03:54:42;102535.84;;;-4.43;79.85
77216;BME280;66210;53.282;9.864;2023-03-01T03:57:08;102537.63;;;-4.42;79.57
77216;BME280;66210;53.282;9.864;2023-03-01T03:59:35;102540.59;;;-4.45;79.50
77216;BME280;66210;53.282;9.864;2023-03-01T04:02:01;102542.44;;;-4.49;79.48
77216;BME280;66210;53.282;9.864;2023-03-01T04:04:28;102538.66;;;-4.53;79.41
77216;BME280;66210;53.282;9.864;2023-03-01T04:06:54;102536.66;;;-4.55;79.52
77216;BME280;66210;53.282;9.864;2023-03-01T04:09:21;102530.41;;;-4.59;79.46
77216;BME280;66210;53.282;9.864;2023-03-01T04:11:48;102527.03;;;-4.60;79.62
77216;BME280;66210;53.282;9.864;2023-03-01T04:14:14;102523.84;;;-4.58;79.43
77216;BME280;66210;53.282;9.864;2023-03-01T04:16:41;102513.44;;;-4.56;79.45
77216;BME280;66210;53.282;9.864;2023-03-01T04:19:08;102511.19;;;-4.54;79.76
77216;BME280;66210;53.282;9.864;2023-03-01T04:21:36;102512.28;;;-4.52;79.17
77216;BME280;66210;53.282;9.864;2023-03-01T04:24:03;102510.41;;;-4.48;79.65
77216;BME280;66210;53.282;9.864;2023-03-01T04:26:30;102503.16;;;-4.46;79.74
77216;BME280;66210;53.282;9.864;2023-03-01T04:28:58;102505.47;;;-4.48;79.69
77216;BME280;66210;53.282;9.864;2023-03-01T04:31:27;102504.56;;;-4.48;79.18
77216;BME280;66210;53.282;9.864;2023-03-01T04:33:55;102505.03;;;-4.51;79.66
77216;BME280;66210;53.282;9.864;2023-03-01T04:36:24;102503.91;;;-4.53;80.05
77216;BME280;66210;53.282;9.864;2023-03-01T04:38:52;102514.34;;;-4.55;80.11
77216;BME280;66210;53.282;9.864;2023-03-01T04:41:20;102517.72;;;-4.55;80.59
77216;BME280;66210;53.282;9.864;2023-03-01T04:43:48;102515.72;;;-4.57;80.18
77216;BME280;66210;53.282;9.864;2023-03-01T04:46:18;102524.34;;;-4.61;80.13
77216;BME280;66210;53.282;9.864;2023-03-01T04:48:45;102520.25;;;-4.61;80.30
77216;BME280;66210;53.282;9.864;2023-03-01T04:51:13;102513.44;;;-4.56;79.85
77216;BME280;66210;53.282;9.864;2023-03-01T04:53:45;102520.13;;;-4.49;79.83
77216;BME280;66210;53.282;9.864;2023-03-01T04:59:59;102514.41;;;-4.43;80.21
77216;BME280;66210;53.282;9.864;2023-03-01T05:02:26;102517.78;;;-4.42;80.00
77216;BME280;66210;53.282;9.864;2023-03-01T05:09:05;102517.78;;;-4.42;80.77
77216;BME280;66210;53.282;9.864;2023-03-01T05:11:32;102513.25;;;-4.39;80.45
77216;BME280;66210;53.282;9.864;2023-03-01T05:14:02;102509.56;;;-4.35;80.53
77216;BME280;66210;53.282;9.864;2023-03-01T05:16:29;102507.69;;;-4.31;79.89
77216;BME280;66210;53.282;9.864;2023-03-01T05:19:00;102499.28;;;-4.26;80.48
77216;BME280;66210;53.282;9.864;2023-03-01T05:21:27;102505.16;;;-4.25;80.23
77216;BME280;66210;53.282;9.864;2023-03-01T05:23:53;102506.03;;;-4.25;80.18
77216;BME280;66210;53.282;9.864;2023-03-01T05:26:21;102507.34;;;-4.21;80.35
77216;BME280;66210;53.282;9.864;2023-03-01T05:29:00;102510.44;;;-4.16;80.50
77216;BME280;66210;53.282;9.864;2023-03-01T05:31:28;102504.97;;;-4.14;80.46
77216;BME280;66210;53.282;9.864;2023-03-01T05:37:08;102506.75;;;-4.13;80.94
77216;BME280;66210;53.282;9.864;2023-03-01T05:39:35;102513.09;;;-4.15;80.30
77216;BME280;66210;53.282;9.864;2023-03-01T05:42:02;102522.84;;;-4.16;81.08
77216;BME280;66210;53.282;9.864;2023-03-01T05:44:29;102519.44;;;-4.17;80.99
77216;BME280;66210;53.282;9.864;2023-03-01T05:46:56;102510.63;;;-4.15;81.18
77216;BME280;66210;53.282;9.864;2023-03-01T05:49:23;102513.53;;;-4.12;81.58
77216;BME280;66210;53.282;9.864;2023-03-01T05:51:51;102514.81;;;-4.08;81.51
77216;BME280;66210;53.282;9.864;2023-03-01T05:54:20;102512.66;;;-4.00;80.98
77216;BME280;66210;53.282;9.864;2023-03-01T05:56:48;102498.78;;;-3.92;81.69
77216;BME280;66210;53.282;9.864;2023-03-01T05:59:15;102502.97;;;-3.85;81.66
77216;BME280;66210;53.282;9.864;2023-03-01T06:01:42;102508.72;;;-3.79;81.78
77216;BME280;66210;53.282;9.864;2023-03-01T06:04:10;102507.25;;;-3.71;81.13
77216;BME280;66210;53.282;9.864;2023-03-01T06:06:41;102504.66;;;-3.66;81.05
77216;BME280;66210;53.282;9.864;2023-03-01T06:09:16;102498.72;;;-3.61;81.86
77216;BME280;66210;53.282;9.864;2023-03-01T06:11:43;102501.59;;;-3.58;81.53
77216;BME280;66210;53.282;9.864;2023-03-01T06:14:10;102491.16;;;-3.55;82.41
77216;BME280;66210;53.282;9.864;2023-03-01T06:17:12;102490.16;;;-3.50;82.30
77216;BME280;66210;53.282;9.864;2023-03-01T06:19:38;102483.31;;;-3.45;81.59
77216;BME280;66210;53.282;9.864;2023-03-01T06:22:05;102482.13;;;-3.42;82.34
77216;BME280;66210;53.282;9.864;2023-03-01T06:24:32;102481.13;;;-3.37;82.13
77216;BME280;66210;53.282;9.864;2023-03-01T06:26:59;102480.81;;;-3.32;82.19
77216;BME280;66210;53.282;9.864;2023-03-01T06:29:26;102487.78;;;-3.30;82.25
77216;BME280;66210;53.282;9.864;2023-03-01T06:31:52;102479.44;;;-3.30;82.70
77216;BME280;66210;53.282;9.864;2023-03-01T06:34:20;102483.53;;;-3.31;82.24
77216;BME280;66210;53.282;9.864;2023-03-01T06:36:48;102487.28;;;-3.27;81.96
77216;BME280;66210;53.282;9.864;2023-03-01T06:39:14;102481.84;;;-3.25;82.53
77216;BME280;66210;53.282;9.864;2023-03-01T06:41:44;102489.88;;;-3.20;82.18
77216;BME280;66210;53.282;9.864;2023-03-01T06:44:11;102485.50;;;-3.16;81.75
77216;BME280;66210;53.282;9.864;2023-03-01T06:46:40;102478.94;;;-3.15;82.61
77216;BME280;66210;53.282;9.864;2023-03-01T06:49:07;102483.09;;;-3.08;81.84
77216;BME280;66210;53.282;9.864;2023-03-01T06:51:43;102481.19;;;-3.04;82.17
77216;BME280;66210;53.282;9.864;2023-03-01T06:54:10;102473.22;;;-3.01;82.00
77216;BME280;66210;53.282;9.864;2023-03-01T06:56:37;102479.69;;;-2.96;82.23
77216;BME280;66210;53.282;9.864;2023-03-01T06:59:04;102478.28;;;-2.94;82.04
77216;BME280;66210;53.282;9.864;2023-03-01T07:05:19;102484.63;;;-2.83;83.00
77216;BME280;66210;53.282;9.864;2023-03-01T07:07:46;102492.66;;;-2.79;81.95
77216;BME280;66210;53.282;9.864;2023-03-01T07:10:12;102504.81;;;-2.75;82.83
77216;BME280;66210;53.282;9.864;2023-03-01T07:12:41;102497.72;;;-2.72;82.35
77216;BME280;66210;53.282;9.864;2023-03-01T07:15:09;102494.34;;;-2.72;83.79
77216;BME280;66210;53.282;9.864;2023-03-01T07:17:36;102502.28;;;-2.62;83.39
77216;BME280;66210;53.282;9.864;2023-03-01T07:20:03;102492.91;;;-2.57;82.59
77216;BME280;66210;53.282;9.864;2023-03-01T07:22:30;102490.50;;;-2.50;82.45
77216;BME280;66210;53.282;9.864;2023-03-01T07:29:14;102478.38;;;-2.34;82.42
77216;BME280;66210;53.282;9.864;2023-03-01T07:31:41;102467.38;;;-2.29;83.83
77216;BME280;66210;53.282;9.864;2023-03-01T07:34:08;102474.03;;;-2.22;83.11
77216;BME280;66210;53.282;9.864;2023-03-01T07:36:35;102470.53;;;-2.17;83.55
77216;BME280;66210;53.282;9.864;2023-03-01T07:39:02;102465.41;;;-2.12;83.09
77216;BME280;66210;53.282;9.864;2023-03-01T07:41:29;102472.56;;;-2.07;84.14
77216;BME280;66210;53.282;9.864;2023-03-01T07:43:56;102483.59;;;-2.05;82.47
77216;BME280;66210;53.282;9.864;2023-03-01T07:46:23;102480.09;;;-2.00;83.15
77216;BME280;66210;53.282;9.864;2023-03-01T07:48:49;102478.16;;;-1.96;83.51
77216;BME280;66210;53.282;9.864;2023-03-01T07:51:16;102477.31;;;-1.89;82.64
77216;BME280;66210;53.282;9.864;2023-03-01T07:53:47;102474.38;;;-1.79;82.61
77216;BME280;66210;53.282;9.864;2023-03-01T07:56:15;102478.50;;;-1.73;83.50
77216;BME280;66210;53.282;9.864;2023-03-01T07:58:45;102489.22;;;-1.67;82.88
77216;BME280;66210;53.282;9.864;2023-03-01T08:01:18;102489.41;;;-1.65;84.11
77216;BME280;66210;53.282;9.864;2023-03-01T08:03:45;102497.47;;;-1.60;84.01
77216;BME280;66210;53.282;9.864;2023-03-01T08:06:13;102500.50;;;-1.56;83.49
77216;BME280;66210;53.282;9.864;2023-03-01T08:08:40;102488.09;;;-1.49;83.55
77216;BME280;66210;53.282;9.864;2023-03-01T08:11:10;102483.13;;;-1.41;83.86
77216;BME280;66210;53.282;9.864;2023-03-01T08:13:37;102478.22;;;-1.34;83.78
77216;BME280;66210;53.282;9.864;2023-03-01T08:16:07;102478.25;;;-1.27;83.51
77216;BME280;66210;53.282;9.864;2023-03-01T08:18:35;102478.78;;;-1.22;82.94
77216;BME280;66210;53.282;9.864;2023-03-01T08:21:07;102475.97;;;-1.18;83.68
77216;BME280;66210;53.282;9.864;2023-03-01T08:23:34;102477.41;;;-1.13;83.41
77216;BME280;66210;53.282;9.864;2023-03-01T08:26:09;102478.69;;;-1.10;82.56
77216;BME280;66210;53.282;9.864;2023-03-01T08:28:36;102471.03;;;-1.04;82.54
77216;BME280;66210;53.282;9.864;2023-03-01T08:31:17;102476.56;;;-0.99;82.54
77216;BME280;66210;53.282;9.864;2023-03-01T08:33:45;102475.16;;;-0.90;82.26
77216;BME280;66210;53.282;9.864;2023-03-01T08:36:17;102482.66;;;-0.83;82.62
77216;BME280;66210;53.282;9.864;2023-03-01T08:38:44;102476.44;;;-0.79;82.33
77216;BME280;66210;53.282;9.864;2023-03-01T08:41:12;102472.38;;;-0.72;82.07
77216;BME280;66210;53.282;9.864;2023-03-01T08:43:38;102468.97;;;-0.65;81.89
77216;BME280;66210;53.282;9.864;2023-03-01T08:46:05;102477.94;;;-0.60;82.54
77216;BME280;66210;53.282;9.864;2023-03-01T08:48:32;102466.69;;;-0.56;82.37
77216;BME280;66210;53.282;9.864;2023-03-01T08:51:10;102474.75;;;-0.45;82.40
77216;BME280;66210;53.282;9.864;2023-03-01T08:53:38;102481.19;;;-0.39;82.14
77216;BME280;66210;53.282;9.864;2023-03-01T08:56:05;102486.72;;;-0.35;81.64
77216;BME280;66210;53.282;9.864;2023-03-01T08:58:32;102474.56;;;-0.32;82.00
77216;BME280;66210;53.282;9.864;2023-03-01T09:00:59;102476.03;;;-0.27;81.73
77216;BME280;66210;53.282;9.864;2023-03-01T09:03:26;102477.44;;;-0.22;81.29
77216;BME280;66210;53.282;9.864;2023-03-01T09:06:00;102476.91;;;-0.12;81.31
77216;BME280;66210;53.282;9.864;2023-03-01T09:08:26;102472.97;;;-0.03;81.41
77216;BME280;66210;53.282;9.864;2023-03-01T09:10:53;102469.75;;;0.06;81.51
77216;BME280;66210;53.282;9.864;2023-03-01T09:13:20;102472.44;;;0.14;81.27
77216;BME280;66210;53.282;9.864;2023-03-01T09:15:47;102466.00;;;0.24;81.02
77216;BME280;66210;53.282;9.864;2023-03-01T09:18:13;102469.34;;;0.31;80.89
77216;BME280;66210;53.282;9.864;2023-03-01T09:20:40;102463.63;;;0.39;80.38
77216;BME280;66210;53.282;9.864;2023-03-01T09:23:08;102460.41;;;0.48;80.01
77216;BME280;66210;53.282;9.864;2023-03-01T09:25:35;102460.72;;;0.58;79.84
77216;BME280;66210;53.282;9.864;2023-03-01T09:28:01;102455.16;;;0.68;80.24
77216;BME280;66210;53.282;9.864;2023-03-01T09:30:28;102458.16;;;0.79;79.66
77216;BME280;66210;53.282;9.864;2023-03-01T09:32:58;102459.50;;;0.92;78.98
77216;BME280;66210;53.282;9.864;2023-03-01T09:35:25;102455.72;;;1.02;78.52
77216;BME280;66210;53.282;9.864;2023-03-01T09:37:52;102467.81;;;1.14;78.23
77216;BME280;66210;53.282;9.864;2023-03-01T09:40:21;102471.34;;;1.23;78.07
77216;BME280;66210;53.282;9.864;2023-03-01T09:42:56;102469.84;;;1.32;77.56
77216;BME280;66210;53.282;9.864;2023-03-01T09:45:34;102469.09;;;1.40;77.52
77216;BME280;66210;53.282;9.864;2023-03-01T09:48:03;102466.72;;;1.49;76.55
77216;BME280;66210;53.282;9.864;2023-03-01T09:50:35;102465.78;;;1.56;75.34
77216;BME280;66210;53.282;9.864;2023-03-01T09:53:12;102456.59;;;1.63;74.92
77216;BME280;66210;53.282;9.864;2023-03-01T09:55:55;102459.94;;;1.71;75.57
77216;BME280;66210;53.282;9.864;2023-03-01T10:01:27;102461.16;;;1.98;75.59
77216;BME280;66210;53.282;9.864;2023-03-01T10:04:06;102460.31;;;2.13;74.84
77216;BME280;66210;53.282;9.864;2023-03-01T10:06:39;102457.66;;;2.27;74.31
77216;BME280;66210;53.282;9.864;2023-03-01T10:09:15;102450.88;;;2.42;74.25
77216;BME280;66210;53.282;9.864;2023-03-01T10:11:48;102453.97;;;2.56;73.10
77216;BME280;66210;53.282;9.864;2023-03-01T10:14:30;102454.34;;;2.67;73.76
77216;BME280;66210;53.282;9.864;2023-03-01T10:17:26;102455.03;;;2.82;72.97
77216;BME280;66210;53.282;9.864;2023-03-01T10:19:55;102446.59;;;2.98;72.08
77216;BME280;66210;53.282;9.864;2023-03-01T10:22:26;102450.13;;;3.16;71.14
77216;BME280;66210;53.282;9.864;2023-03-01T10:24:59;102438.00;;;3.36;71.02
77216;BME280;66210;53.282;9.864;2023-03-01T10:27:45;102442.28;;;3.62;70.69
77216;BME280;66210;53.282;9.864;2023-03-01T10:30:32;102439.56;;;3.85;69.74
77216;BME280;66210;53.282;9.864;2023-03-01T10:33:01;102438.13;;;3.95;68.84
77216;BME280;66210;53.282;9.864;2023-03-01T10:35:32;102445.13;;;4.07;68.17
77216;BME280;66210;53.282;9.864;2023-03-01T10:38:08;102435.38;;;4.19;68.69
77216;BME280;66210;53.282;9.864;2023-03-01T10:43:17;102440.16;;;4.50;67.45
77216;BME280;66210;53.282;9.864;2023-03-01T10:45:44;102432.94;;;4.62;66.88
77216;BME280;66210;53.282;9.864;2023-03-01T10:51:05;102431.59;;;4.83;66.54
77216;BME280;66210;53.282;9.864;2023-03-01T10:53:38;102428.91;;;4.90;65.73
77216;BME280;66210;53.282;9.864;2023-03-01T10:56:11;102432.63;;;4.94;65.83
77216;BME280;66210;53.282;9.864;2023-03-01T10:58:56;102428.75;;;4.97;65.42
77216;BME280;66210;53.282;9.864;2023-03-01T11:04:12;102432.28;;;5.08;64.40
77216;BME280;66210;53.282;9.864;2023-03-01T11:06:40;102432.88;;;5.14;65.39
77216;BME280;66210;53.282;9.864;2023-03-01T11:09:21;102436.25;;;5.32;65.29
77216;BME280;66210;53.282;9.864;2023-03-01T11:11:53;102431.44;;;5.53;65.00
77216;BME280;66210;53.282;9.864;2023-03-01T11:14:22;102433.91;;;5.70;64.47
77216;BME280;66210;53.282;9.864;2023-03-01T11:17:04;102428.38;;;5.83;64.70
77216;BME280;66210;53.282;9.864;2023-03-01T11:19:32;102423.72;;;5.96;63.77
77216;BME280;66210;53.282;9.864;2023-03-01T11:22:17;102423.13;;;5.99;63.08
77216;BME280;66210;53.282;9.864;2023-03-01T11:24:47;102415.56;;;5.99;63.55
77216;BME280;66210;53.282;9.864;2023-03-01T11:27:31;102416.88;;;6.04;64.01
77216;BME280;66210;53.282;9.864;2023-03-01T11:30:10;102420.22;;;6.13;64.00
77216;BME280;66210;53.282;9.864;2023-03-01T11:35:30;102409.81;;;6.19;63.26
77216;BME280;66210;53.282;9.864;2023-03-01T11:38:09;102413.31;;;6.21;62.96
77216;BME280;66210;53.282;9.864;2023-03-01T11:40:47;102415.69;;;6.28;63.78
77216;BME280;66210;53.282;9.864;2023-03-01T11:43:20;102414.44;;;6.33;63.45
77216;BME280;66210;53.282;9.864;2023-03-01T11:46:16;102402.44;;;6.31;64.13
77216;BME280;66210;53.282;9.864;2023-03-01T11:48:53;102404.34;;;6.33;64.47
77216;BME280;66210;53.282;9.864;2023-03-01T11:54:13;102395.56;;;6.19;65.25
77216;BME280;66210;53.282;9.864;2023-03-01T11:56:55;102395.88;;;6.14;65.73
77216;BME280;66210;53.282;9.864;2023-03-01T11:59:36;102388.66;;;6.08;65.58
77216;BME280;66210;53.282;9.864;2023-03-01T12:07:18;102381.06;;;6.08;66.51
77216;BME280;66210;53.282;9.864;2023-03-01T12:15:40;102376.84;;;6.17;66.43
77216;BME280;66210;53.282;9.864;2023-03-01T12:21:30;102370.88;;;6.26;66.19
77216;BME280;66210;53.282;9.864;2023-03-01T12:26:27;102354.81;;;6.25;65.33
77216;BME280;66210;53.282;9.864;2023-03-01T12:29:25;102355.22;;;6.30;65.47
77216;BME280;66210;53.282;9.864;2023-03-01T12:35:01;102341.84;;;6.50;65.65
77216;BME280;66210;53.282;9.864;2023-03-01T12:37:39;102335.22;;;6.60;65.23
77216;BME280;66210;53.282;9.864;2023-03-01T12:46:03;102313.03;;;6.66;64.45
77216;BME280;66210;53.282;9.864;2023-03-01T12:51:34;102312.81;;;6.74;64.67
77216;BME280;66210;53.282;9.864;2023-03-01T12:54:11;102305.63;;;6.78;65.05
77216;BME280;66210;53.282;9.864;2023-03-01T12:56:41;102303.34;;;6.81;64.96
77216;BME280;66210;53.282;9.864;2023-03-01T12:59:16;102310.44;;;6.85;65.05
77216;BME280;66210;53.282;9.864;2023-03-01T13:01:54;102303.88;;;6.87;65.11
77216;BME280;66210;53.282;9.864;2023-03-01T13:10:31;102300.88;;;6.92;64.42
77216;BME280;66210;53.282;9.864;2023-03-01T13:13:08;102300.00;;;6.91;64.38
77216;BME280;66210;53.282;9.864;2023-03-01T13:15:37;102301.63;;;6.91;64.11
77216;BME280;66210;53.282;9.864;2023-03-01T13:26:00;102291.72;;;6.83;63.65
77216;BME280;66210;53.282;9.864;2023-03-01T13:31:03;102281.50;;;6.82;64.18
77216;BME280;66210;53.282;9.864;2023-03-01T13:35:57;102284.19;;;6.94;64.36
77216;BME280;66210;53.282;9.864;2023-03-01T13:44:30;102272.97;;;7.11;64.28
77216;BME280;66210;53.282;9.864;2023-03-01T13:47:19;102272.88;;;7.09;64.19
77216;BME280;66210;53.282;9.864;2023-03-01T13:49:53;102271.09;;;7.08;63.92
77216;BME280;66210;53.282;9.864;2023-03-01T13:52:43;102270.19;;;7.07;64.21
77216;BME280;66210;53.282;9.864;2023-03-01T13:57:40;102264.63;;;7.01;63.80
77216;BME280;66210;53.282;9.864;2023-03-01T14:00:31;102263.75;;;7.01;63.80
77216;BME280;66210;53.282;9.864;2023-03-01T14:05:32;102252.84;;;6.92;63.76
77216;BME280;66210;53.282;9.864;2023-03-01T14:07:59;102257.78;;;6.90;64.11
77216;BME280;66210;53.282;9.864;2023-03-01T14:10:36;102259.28;;;6.88;64.50
77216;BME280;66210;53.282;9.864;2023-03-01T14:18:52;102256.50;;;6.85;63.92
77216;BME280;66210;53.282;9.864;2023-03-01T14:21:22;102252.22;;;6.84;64.19
77216;BME280;66210;53.282;9.864;2023-03-01T14:23:49;102252.97;;;6.83;64.01
77216;BME280;66210;53.282;9.864;2023-03-01T14:26:21;102252.81;;;6.81;63.73
77216;BME280;66210;53.282;9.864;2023-03-01T14:28:50;102241.84;;;6.81;63.72
77216;BME280;66210;53.282;9.864;2023-03-01T14:33:58;102242.13;;;6.84;63.59
77216;BME280;66210;53.282;9.864;2023-03-01T14:36:30;102236.28;;;6.85;63.57
77216;BME280;66210;53.282;9.864;2023-03-01T14:38:57;102234.53;;;6.84;63.31
77216;BME280;66210;53.282;9.864;2023-03-01T14:41:34;102230.72;;;6.79;63.60
77216;BME280;66210;53.282;9.864;2023-03-01T14:44:06;102229.97;;;6.80;63.91
77216;BME280;66210;53.282;9.864;2023-03-01T14:46:36;102228.06;;;6.77;64.04
77216;BME280;66210;53.282;9.864;2023-03-01T14:49:09;102219.34;;;6.74;64.16
77216;BME280;66210;53.282;9.864;2023-03-01T14:51:38;102217.16;;;6.68;64.46
77216;BME280;66210;53.282;9.864;2023-03-01T14:54:21;102209.34;;;6.65;64.31
77216;BME280;66210;53.282;9.864;2023-03-01T14:56:50;102214.53;;;6.66;64.39
77216;BME280;66210;53.282;9.864;2023-03-01T14:59:21;102207.81;;;6.67;64.01
77216;BME280;66210;53.282;9.864;2023-03-01T15:01:48;102222.22;;;6.68;64.44
77216;BME280;66210;53.282;9.864;2023-03-01T15:04:16;102211.38;;;6.69;64.08